Appleton, Colorado
Current Conditions -  °F | °C
As of 7:53 AM on Saturday 20 Dec 2014 (Local Time) from KGJT Reporting Station
Overcast Overcast  
Wind Chill: 23°   Ceiling: 8500
Heat Index: 29°   Visibility: 10mi
Dew Point: 23°   Wind: 6mph
Humidity: 78%   Direction: 140°SE
Pressure: 30.18"   Gusts: NA
Location:  39.1857°N, 108.6°W
Report Text: KGJT 201453Z 14005KT 10SM OVC085 M02/M05 A3018 RMK AO2 SLP240 T10171050 50001 $
Loading
Personal Weather Stations






























Interactive Weather Map New forecast layout! Learn more

10-Day Weather Forecast

Advertisements
Track Severe Weather on mobile